createdAt,value
2018-05-26T00:02:13.265Z,19.80
2018-05-26T00:04:41.694Z,19.80
2018-05-26T00:07:09.217Z,19.80
2018-05-26T00:09:36.760Z,19.70
2018-05-26T00:12:04.279Z,19.70
2018-05-26T00:14:31.797Z,19.60
2018-05-26T00:19:33.321Z,19.60
2018-05-26T00:22:00.869Z,19.60
2018-05-26T00:24:28.383Z,19.60
2018-05-26T00:26:55.922Z,19.60
2018-05-26T00:29:23.435Z,19.50
2018-05-26T00:31:50.965Z,19.50
2018-05-26T00:34:18.485Z,19.40
2018-05-26T00:36:46.005Z,19.40
2018-05-26T00:39:13.512Z,19.30
2018-05-26T00:41:41.758Z,19.30
2018-05-26T00:44:09.286Z,19.30
2018-05-26T00:46:37.546Z,19.20
2018-05-26T00:51:38.887Z,19.10
2018-05-26T00:54:06.395Z,19.00
2018-05-26T00:56:34.680Z,18.90
2018-05-26T00:59:02.973Z,18.90
2018-05-26T01:01:30.487Z,18.90
2018-05-26T01:03:58.022Z,18.90
2018-05-26T01:06:25.542Z,18.70
2018-05-26T01:08:53.813Z,18.80
2018-05-26T01:11:21.342Z,18.80
2018-05-26T01:13:48.847Z,18.80
2018-05-26T01:16:16.414Z,18.90
2018-05-26T01:18:43.966Z,18.90
2018-05-26T01:21:12.198Z,18.90
2018-05-26T01:23:40.006Z,18.90
2018-05-26T01:26:07.507Z,18.80
2018-05-26T01:28:35.031Z,18.80
2018-05-26T01:31:03.305Z,18.70
2018-05-26T01:33:30.818Z,18.70
2018-05-26T01:35:59.080Z,18.50
2018-05-26T01:38:26.591Z,18.40
2018-05-26T01:40:54.108Z,18.50
2018-05-26T01:43:21.618Z,18.50
2018-05-26T01:45:49.112Z,18.50
2018-05-26T01:48:16.630Z,18.50
2018-05-26T01:50:44.903Z,18.50
2018-05-26T01:53:12.413Z,18.40
2018-05-26T01:55:40.687Z,18.50
2018-05-26T01:58:08.213Z,18.40
2018-05-26T02:00:36.501Z,18.40
2018-05-26T02:03:04.028Z,18.30
2018-05-26T02:05:31.529Z,18.40
2018-05-26T02:07:59.054Z,18.30
2018-05-26T02:10:27.322Z,18.10
2018-05-26T02:12:54.845Z,18.00
2018-05-26T02:15:23.100Z,18.00
2018-05-26T02:17:50.622Z,18.00
2018-05-26T02:20:18.121Z,17.90
2018-05-26T02:22:46.382Z,17.90
2018-05-26T02:25:13.901Z,17.80
2018-05-26T02:27:42.179Z,17.80
2018-05-26T02:30:09.719Z,17.70
2018-05-26T02:32:37.248Z,17.80
2018-05-26T02:35:04.755Z,17.80
2018-05-26T02:37:33.029Z,17.70
2018-05-26T02:40:00.540Z,17.70
2018-05-26T02:42:28.069Z,17.60
2018-05-26T02:44:55.617Z,17.60
2018-05-26T02:47:23.135Z,17.50
2018-05-26T02:49:50.687Z,17.50
2018-05-26T02:52:18.171Z,17.40
2018-05-26T02:54:45.671Z,17.40
2018-05-26T02:57:13.170Z,17.50
2018-05-26T02:59:40.678Z,17.50
2018-05-26T03:02:08.202Z,17.60
2018-05-26T03:04:41.322Z,17.70
2018-05-26T03:07:14.460Z,17.60
2018-05-26T03:09:47.535Z,17.60
2018-05-26T03:12:21.644Z,17.60
2018-05-26T03:14:48.662Z,17.50
2018-05-26T03:17:18.786Z,17.60
2018-05-26T03:19:47.074Z,17.60
2018-05-26T03:22:14.611Z,17.60
2018-05-26T03:24:42.146Z,17.60
2018-05-26T03:27:11.322Z,17.50
2018-05-26T03:29:38.819Z,17.50
2018-05-26T03:32:06.314Z,17.50
2018-05-26T03:34:33.842Z,17.60
2018-05-26T03:37:01.352Z,17.60
2018-05-26T03:39:28.860Z,17.70
2018-05-26T03:41:56.363Z,17.70
2018-05-26T03:44:24.650Z,17.60
2018-05-26T03:46:52.171Z,17.60
2018-05-26T03:49:19.683Z,17.60
2018-05-26T03:51:47.203Z,17.60
2018-05-26T03:54:14.718Z,17.50
2018-05-26T03:56:54.932Z,17.50
2018-05-26T03:59:34.386Z,17.40
2018-05-26T04:02:01.876Z,17.40
2018-05-26T04:04:29.381Z,17.30
2018-05-26T04:06:56.886Z,17.30
2018-05-26T04:09:24.391Z,17.30
2018-05-26T04:11:52.655Z,17.30
2018-05-26T04:14:20.155Z,17.20
2018-05-26T04:16:47.661Z,17.30
2018-05-26T04:19:15.947Z,17.40
2018-05-26T04:21:43.457Z,17.30
2018-05-26T04:24:11.882Z,17.40
2018-05-26T04:26:39.374Z,17.40
2018-05-26T04:29:06.890Z,17.50
2018-05-26T04:31:34.397Z,17.50
2018-05-26T04:34:02.668Z,17.60
2018-05-26T04:36:30.165Z,17.50
2018-05-26T04:38:57.646Z,17.70
2018-05-26T04:41:25.147Z,17.80
2018-05-26T04:43:53.424Z,18.10
2018-05-26T04:46:20.930Z,18.10
2018-05-26T04:48:48.436Z,18.30
2018-05-26T04:51:15.923Z,18.30
2018-05-26T04:53:43.439Z,18.40
2018-05-26T04:56:11.743Z,18.50
2018-05-26T04:58:39.255Z,18.60
2018-05-26T05:01:06.741Z,18.60
2018-05-26T05:03:35.030Z,18.90
2018-05-26T05:06:02.543Z,18.80
2018-05-26T05:08:30.812Z,19.10
2018-05-26T05:10:58.318Z,19.10
2018-05-26T05:13:26.594Z,19.30
2018-05-26T05:15:54.125Z,19.20
2018-05-26T05:18:21.621Z,19.30
2018-05-26T05:20:49.142Z,19.40
2018-05-26T05:23:16.650Z,19.50
2018-05-26T05:25:44.150Z,19.60
2018-05-26T05:28:12.490Z,19.70
2018-05-26T05:30:40.267Z,19.90
2018-05-26T05:33:07.776Z,19.90
2018-05-26T05:35:35.292Z,19.90
2018-05-26T05:38:03.547Z,20.00
2018-05-26T05:40:31.059Z,20.00
2018-05-26T05:42:58.557Z,20.20
2018-05-26T05:45:26.818Z,20.40
2018-05-26T05:47:54.340Z,20.30
2018-05-26T05:50:22.620Z,20.50
2018-05-26T05:52:50.125Z,20.50
2018-05-26T05:55:18.394Z,20.60
2018-05-26T05:57:45.927Z,20.60
2018-05-26T06:00:14.195Z,20.50
2018-05-26T06:02:41.970Z,20.50
2018-05-26T06:05:09.470Z,20.60
2018-05-26T06:07:36.983Z,20.70
2018-05-26T06:10:05.255Z,21.00
2018-05-26T06:12:32.772Z,20.90
2018-05-26T06:15:00.365Z,21.10
2018-05-26T06:17:27.833Z,21.10
2018-05-26T06:19:56.137Z,21.10
2018-05-26T06:22:23.667Z,21.10
2018-05-26T06:24:51.178Z,21.10
2018-05-26T06:27:18.670Z,21.10
2018-05-26T06:29:46.940Z,21.40
2018-05-26T06:32:14.435Z,21.30
2018-05-26T06:34:41.935Z,21.50
2018-05-26T06:37:09.444Z,21.70
2018-05-26T06:39:36.976Z,21.70
2018-05-26T06:42:04.495Z,21.80
2018-05-26T06:44:32.771Z,22.00
2018-05-26T06:47:00.282Z,22.00
2018-05-26T06:49:28.555Z,22.20
2018-05-26T06:51:56.067Z,22.20
2018-05-26T06:54:24.344Z,22.40
2018-05-26T06:56:51.847Z,22.30
2018-05-26T06:59:20.149Z,22.60
2018-05-26T07:01:48.428Z,22.70
2018-05-26T07:04:15.952Z,22.70
2018-05-26T07:06:43.483Z,22.80
2018-05-26T07:09:11.935Z,22.80
2018-05-26T07:11:39.492Z,22.80
2018-05-26T07:14:07.006Z,23.00
2018-05-26T07:16:34.510Z,23.10
2018-05-26T07:19:02.028Z,23.20
2018-05-26T07:21:29.575Z,23.30
2018-05-26T07:23:57.111Z,23.50
2018-05-26T07:26:24.642Z,23.60
2018-05-26T07:28:52.195Z,23.70
2018-05-26T07:31:20.518Z,23.90
2018-05-26T07:33:48.125Z,23.90
2018-05-26T07:36:16.400Z,24.10
2018-05-26T07:38:43.952Z,24.10
2018-05-26T07:41:12.291Z,24.40
2018-05-26T07:43:40.124Z,24.40
2018-05-26T07:46:07.657Z,24.60
2018-05-26T07:48:35.202Z,24.60
2018-05-26T07:51:02.740Z,24.80
2018-05-26T07:53:30.276Z,24.90
2018-05-26T07:55:57.826Z,25.10
2018-05-26T07:58:25.382Z,25.10
2018-05-26T08:00:52.942Z,25.20
2018-05-26T08:03:21.265Z,25.40
2018-05-26T08:05:48.823Z,25.30
2018-05-26T08:08:17.170Z,25.60
2018-05-26T08:10:44.736Z,25.60
2018-05-26T08:13:12.287Z,25.80
2018-05-26T08:15:40.038Z,26.00
2018-05-26T08:18:07.584Z,26.20
2018-05-26T08:20:35.888Z,26.40
2018-05-26T08:23:04.175Z,26.50
2018-05-26T08:25:31.719Z,26.50
2018-05-26T08:27:59.247Z,26.70
2018-05-26T08:30:26.971Z,26.80
2018-05-26T08:32:54.521Z,26.90
2018-05-26T08:35:22.829Z,27.20
2018-05-26T08:37:51.119Z,27.30
2018-05-26T08:40:18.659Z,27.30
2018-05-26T08:42:46.195Z,27.50
2018-05-26T08:45:14.516Z,27.80
2018-05-26T08:47:42.824Z,28.10
2018-05-26T08:50:11.087Z,28.00
2018-05-26T08:52:38.617Z,28.30
2018-05-26T08:55:06.161Z,28.40
2018-05-26T08:57:34.450Z,28.50
2018-05-26T09:00:01.972Z,28.50
2018-05-26T09:02:29.486Z,28.60
2018-05-26T09:04:57.024Z,28.60
2018-05-26T09:07:25.310Z,28.70
2018-05-26T09:09:52.854Z,28.70
2018-05-26T09:12:20.391Z,28.80
2018-05-26T09:14:48.658Z,29.00
2018-05-26T09:17:16.205Z,29.00
2018-05-26T09:19:43.715Z,29.00
2018-05-26T09:22:12.080Z,29.10
2018-05-26T09:24:39.625Z,29.30
2018-05-26T09:27:07.135Z,29.40
2018-05-26T09:29:35.401Z,29.70
2018-05-26T09:32:02.923Z,29.60
2018-05-26T09:34:31.203Z,29.90
2018-05-26T09:36:58.742Z,29.80
2018-05-26T09:39:26.269Z,30.00
2018-05-26T09:41:53.828Z,30.20
2018-05-26T09:44:21.320Z,30.30
2018-05-26T09:46:48.837Z,30.40
2018-05-26T09:49:17.115Z,30.40
2018-05-26T09:51:44.624Z,30.40
2018-05-26T09:54:12.924Z,30.70
2018-05-26T09:56:41.751Z,30.70
2018-05-26T09:59:09.273Z,30.70
2018-05-26T10:01:36.799Z,30.90
2018-05-26T10:04:04.294Z,31.00
2018-05-26T10:06:31.830Z,31.10
2018-05-26T10:09:00.126Z,31.20
2018-05-26T10:11:27.643Z,31.10
2018-05-26T10:13:55.941Z,31.30
2018-05-26T10:16:23.453Z,31.20
2018-05-26T10:18:51.730Z,31.40
2018-05-26T10:21:19.243Z,31.40
2018-05-26T10:23:46.763Z,31.50
2018-05-26T10:26:14.310Z,31.60
2018-05-26T10:28:42.578Z,31.70
2018-05-26T10:31:10.079Z,31.60
2018-05-26T10:33:38.366Z,31.80
2018-05-26T10:36:05.895Z,31.80
2018-05-26T10:38:33.402Z,31.80
2018-05-26T10:41:00.933Z,31.80
2018-05-26T10:43:29.233Z,31.90
2018-05-26T10:46:09.499Z,31.90
2018-05-26T10:48:36.994Z,31.90
2018-05-26T10:51:04.483Z,32.00
2018-05-26T10:53:32.770Z,32.20
2018-05-26T10:56:00.290Z,32.20
2018-05-26T10:58:28.547Z,32.50
2018-05-26T11:00:56.063Z,32.50
2018-05-26T11:03:23.593Z,32.40
2018-05-26T11:05:51.108Z,32.50
2018-05-26T11:08:18.632Z,32.50
2018-05-26T11:10:46.157Z,32.70
2018-05-26T11:13:13.678Z,32.70
2018-05-26T11:15:42.512Z,32.80
2018-05-26T11:18:10.068Z,32.80
2018-05-26T11:20:38.353Z,32.90
2018-05-26T11:23:06.661Z,33.10
2018-05-26T11:25:34.263Z,33.00
2018-05-26T11:28:02.553Z,33.30
2018-05-26T11:30:30.834Z,33.40
2018-05-26T11:32:58.335Z,33.30
2018-05-26T11:35:25.867Z,33.50
2018-05-26T11:37:53.377Z,33.50
2018-05-26T11:40:20.887Z,33.70
2018-05-26T11:42:48.400Z,33.70
2018-05-26T11:45:15.927Z,33.60
2018-05-26T11:47:43.447Z,33.70
2018-05-26T11:50:12.571Z,33.70
2018-05-26T11:52:41.395Z,33.80
2018-05-26T11:55:08.924Z,33.80
2018-05-26T11:57:36.451Z,33.90
2018-05-26T12:00:04.752Z,33.80
2018-05-26T12:02:33.020Z,33.70
2018-05-26T12:05:00.547Z,33.70
2018-05-26T12:07:28.102Z,33.70
2018-05-26T12:09:55.614Z,33.60
2018-05-26T12:12:23.143Z,33.60
2018-05-26T12:14:50.687Z,33.60
2018-05-26T12:19:53.007Z,33.60
2018-05-26T12:22:21.308Z,33.60
2018-05-26T12:24:49.587Z,33.60
2018-05-26T12:27:17.870Z,33.70
2018-05-26T12:29:45.430Z,33.60
2018-05-26T12:32:12.960Z,33.70
2018-05-26T12:34:41.077Z,33.70
2018-05-26T12:37:08.586Z,33.80
2018-05-26T12:39:36.125Z,33.90
2018-05-26T12:42:03.645Z,34.10
2018-05-26T12:44:31.200Z,34.20
2018-05-26T12:46:58.718Z,34.30
2018-05-26T12:49:26.249Z,34.30
2018-05-26T12:51:53.771Z,34.40
2018-05-26T12:54:22.045Z,34.30
2018-05-26T12:56:49.589Z,34.30
2018-05-26T12:59:17.106Z,34.30
2018-05-26T13:01:44.622Z,34.30
2018-05-26T13:04:12.122Z,34.30
2018-05-26T13:06:39.634Z,34.30
2018-05-26T13:09:07.166Z,34.30
2018-05-26T13:11:35.464Z,34.30
2018-05-26T13:14:03.771Z,34.30
2018-05-26T13:16:32.061Z,34.30
2018-05-26T13:18:59.575Z,34.20
2018-05-26T13:21:27.090Z,34.30
2018-05-26T13:23:54.620Z,34.30
2018-05-26T13:26:22.123Z,34.40
2018-05-26T13:28:50.405Z,34.40
2018-05-26T13:31:18.691Z,34.40
2018-05-26T13:33:46.227Z,34.40
2018-05-26T13:36:13.753Z,34.50
2018-05-26T13:38:41.776Z,34.50
2018-05-26T13:41:09.323Z,34.60
2018-05-26T13:43:36.876Z,34.50
2018-05-26T13:46:04.402Z,34.30
2018-05-26T13:48:31.930Z,34.10
2018-05-26T13:53:33.529Z,33.90
2018-05-26T13:56:00.944Z,33.80
2018-05-26T13:58:28.458Z,33.90
2018-05-26T14:00:55.975Z,33.90
2018-05-26T14:03:24.263Z,34.10
2018-05-26T14:05:51.815Z,34.00
2018-05-26T14:08:19.343Z,34.10
2018-05-26T14:10:46.880Z,34.10
2018-05-26T14:13:14.447Z,33.90
2018-05-26T14:15:42.800Z,33.80
2018-05-26T14:18:10.930Z,33.80
2018-05-26T14:20:38.448Z,33.70
2018-05-26T14:23:05.978Z,33.60
2018-05-26T14:25:33.495Z,33.40
2018-05-26T14:28:01.027Z,33.20
2018-05-26T14:30:28.575Z,33.20
2018-05-26T14:32:56.100Z,33.10
2018-05-26T14:35:23.639Z,32.90
2018-05-26T14:37:51.187Z,32.80
2018-05-26T14:40:19.463Z,32.70
2018-05-26T14:42:47.007Z,32.70
2018-05-26T14:45:14.551Z,32.70
2018-05-26T14:50:16.718Z,32.40
2018-05-26T14:52:44.248Z,32.30
2018-05-26T14:57:47.332Z,31.70
2018-05-26T15:00:15.614Z,31.60
2018-05-26T15:02:43.144Z,31.50
2018-05-26T15:05:11.031Z,31.50
2018-05-26T15:07:38.555Z,31.40
2018-05-26T15:10:06.075Z,31.30
2018-05-26T15:12:34.383Z,31.00
2018-05-26T15:15:02.663Z,30.80
2018-05-26T15:17:30.199Z,30.80
2018-05-26T15:19:57.728Z,30.70
2018-05-26T15:22:25.244Z,30.60
2018-05-26T15:24:53.514Z,30.30
2018-05-26T15:27:21.054Z,30.30
2018-05-26T15:29:48.574Z,30.20
2018-05-26T15:32:16.091Z,30.10
2018-05-26T15:34:44.417Z,29.80
2018-05-26T15:37:12.658Z,29.80
2018-05-26T15:39:40.209Z,29.70
2018-05-26T15:42:07.742Z,29.50
2018-05-26T15:44:36.036Z,29.60
2018-05-26T15:47:03.545Z,29.50
2018-05-26T15:49:31.811Z,29.20
2018-05-26T15:51:59.356Z,29.10
2018-05-26T15:54:26.884Z,29.20
2018-05-26T15:56:54.414Z,29.20
2018-05-26T15:59:21.916Z,29.10
2018-05-26T16:01:49.430Z,29.00
2018-05-26T16:04:16.935Z,29.10
2018-05-26T16:06:45.260Z,28.90
2018-05-26T16:09:13.531Z,29.00
2018-05-26T16:11:41.636Z,28.90
2018-05-26T16:14:09.182Z,29.00
2018-05-26T16:16:36.736Z,29.00
2018-05-26T16:19:04.294Z,29.00
2018-05-26T16:21:32.550Z,28.80
2018-05-26T16:24:00.056Z,28.70
2018-05-26T16:26:27.579Z,28.70
2018-05-26T16:28:55.104Z,28.70
2018-05-26T16:31:22.626Z,28.50
2018-05-26T16:33:50.146Z,28.50
2018-05-26T16:36:17.660Z,28.40
2018-05-26T16:38:45.189Z,28.30
2018-05-26T16:41:13.442Z,28.10
2018-05-26T16:43:41.419Z,28.00
2018-05-26T16:46:08.909Z,28.00
2018-05-26T16:48:36.412Z,28.00
2018-05-26T16:51:03.955Z,27.90
2018-05-26T16:53:31.488Z,27.80
2018-05-26T16:55:59.009Z,27.70
2018-05-26T16:58:27.278Z,27.50
2018-05-26T17:00:54.772Z,27.40
2018-05-26T17:03:23.050Z,27.40
2018-05-26T17:05:50.559Z,27.40
2018-05-26T17:08:18.082Z,27.30
2018-05-26T17:10:45.591Z,27.20
2018-05-26T17:13:13.111Z,27.20
2018-05-26T17:15:42.015Z,27.00
2018-05-26T17:18:10.331Z,26.90
2018-05-26T17:20:39.315Z,26.80
2018-05-26T17:23:06.859Z,26.70
2018-05-26T17:25:34.400Z,26.70
2018-05-26T17:28:01.939Z,26.70
2018-05-26T17:30:29.484Z,26.70
2018-05-26T17:32:57.794Z,26.70
2018-05-26T17:35:26.076Z,26.70
2018-05-26T17:40:27.438Z,26.70
2018-05-26T17:42:54.971Z,26.70
2018-05-26T17:45:22.527Z,26.70
2018-05-26T17:47:50.083Z,26.60
2018-05-26T17:50:18.391Z,26.60
2018-05-26T17:52:45.970Z,26.50
2018-05-26T17:55:13.519Z,26.60
2018-05-26T17:57:42.079Z,26.60
2018-05-26T18:00:09.615Z,26.50
2018-05-26T18:02:37.894Z,26.30
2018-05-26T18:05:05.419Z,26.30
2018-05-26T18:07:32.933Z,26.20
2018-05-26T18:10:00.439Z,26.00
2018-05-26T18:12:27.941Z,25.90
2018-05-26T18:14:55.452Z,25.80
2018-05-26T18:17:22.982Z,25.80
2018-05-26T18:19:50.516Z,25.70
2018-05-26T18:22:18.792Z,25.40
2018-05-26T18:24:46.298Z,25.40
2018-05-26T18:27:14.578Z,25.40
2018-05-26T18:29:42.267Z,25.40
2018-05-26T18:32:11.154Z,25.40
2018-05-26T18:34:38.678Z,25.30
2018-05-26T18:37:07.003Z,25.10
2018-05-26T18:39:34.582Z,25.00
2018-05-26T18:42:02.152Z,25.00
2018-05-26T18:44:30.446Z,24.90
2018-05-26T18:46:58.014Z,24.80
2018-05-26T18:49:25.556Z,24.90
2018-05-26T18:51:53.127Z,24.80
2018-05-26T18:54:20.679Z,24.70
2018-05-26T18:56:48.247Z,24.70
2018-05-26T18:59:15.792Z,24.60
2018-05-26T19:01:43.356Z,24.50
2018-05-26T19:04:11.092Z,24.40
2018-05-26T19:06:38.679Z,24.40
2018-05-26T19:09:06.173Z,24.30
2018-05-26T19:11:33.700Z,24.30
2018-05-26T19:14:01.988Z,24.30
2018-05-26T19:16:30.275Z,24.20
2018-05-26T19:18:57.786Z,24.10
2018-05-26T19:21:25.295Z,24.10
2018-05-26T19:23:52.822Z,24.10
2018-05-26T19:26:20.347Z,24.10
2018-05-26T19:28:47.855Z,24.10
2018-05-26T19:31:15.389Z,24.10
2018-05-26T19:33:43.670Z,23.90
2018-05-26T19:36:11.222Z,23.80
2018-05-26T19:38:38.744Z,23.80
2018-05-26T19:41:06.252Z,23.70
2018-05-26T19:43:34.540Z,23.70
2018-05-26T19:46:02.043Z,23.60
2018-05-26T19:48:29.570Z,23.60
2018-05-26T19:50:57.119Z,23.60
2018-05-26T19:53:24.627Z,23.50
2018-05-26T19:55:52.139Z,23.50
2018-05-26T19:58:19.696Z,23.40
2018-05-26T20:00:47.234Z,23.50
2018-05-26T20:03:15.507Z,23.30
2018-05-26T20:05:43.041Z,23.30
2018-05-26T20:08:11.031Z,23.10
2018-05-26T20:10:38.617Z,23.10
2018-05-26T20:13:06.127Z,23.10
2018-05-26T20:15:33.651Z,23.10
2018-05-26T20:18:03.184Z,23.10
2018-05-26T20:20:32.031Z,23.10
2018-05-26T20:22:59.611Z,23.10
2018-05-26T20:25:27.143Z,23.10
2018-05-26T20:27:54.676Z,23.10
2018-05-26T20:30:22.236Z,23.10
2018-05-26T20:32:50.535Z,22.90
2018-05-26T20:35:18.222Z,22.90
2018-05-26T20:37:45.781Z,22.90
2018-05-26T20:40:13.285Z,22.90
2018-05-26T20:42:42.527Z,22.70
2018-05-26T20:45:11.104Z,22.50
2018-05-26T20:47:38.651Z,22.40
2018-05-26T20:50:06.186Z,22.40
2018-05-26T20:52:34.505Z,22.40
2018-05-26T20:55:02.801Z,22.30
2018-05-26T20:57:31.104Z,22.30
2018-05-26T20:59:59.449Z,22.30
2018-05-26T21:02:27.739Z,22.40
2018-05-26T21:04:55.279Z,22.30
2018-05-26T21:07:22.808Z,22.40
2018-05-26T21:09:50.367Z,22.40
2018-05-26T21:12:18.011Z,22.40
2018-05-26T21:14:45.577Z,22.40
2018-05-26T21:17:13.168Z,22.30
2018-05-26T21:19:41.478Z,22.30
2018-05-26T21:22:08.994Z,22.20
2018-05-26T21:24:37.851Z,22.10
2018-05-26T21:27:05.387Z,22.00
2018-05-26T21:29:32.915Z,22.10
2018-05-26T21:32:00.474Z,22.00
2018-05-26T21:34:28.755Z,21.90
2018-05-26T21:36:56.319Z,21.80
2018-05-26T21:39:23.899Z,21.80
2018-05-26T21:41:52.239Z,21.60
2018-05-26T21:44:20.543Z,21.50
2018-05-26T21:46:48.887Z,21.50
2018-05-26T21:49:16.422Z,21.50
2018-05-26T21:51:44.803Z,21.60
2018-05-26T21:54:12.703Z,21.50
2018-05-26T21:56:40.891Z,21.60
2018-05-26T21:59:08.421Z,21.60
2018-05-26T22:01:35.991Z,21.50
2018-05-26T22:04:04.309Z,21.60
2018-05-26T22:06:31.835Z,21.60
2018-05-26T22:08:59.378Z,21.70
2018-05-26T22:11:26.916Z,21.80
2018-05-26T22:13:54.445Z,21.80
2018-05-26T22:16:22.831Z,21.90
2018-05-26T22:18:51.184Z,21.90
2018-05-26T22:21:18.740Z,21.80
2018-05-26T22:23:46.301Z,21.90
2018-05-26T22:26:14.627Z,21.90
2018-05-26T22:28:42.892Z,21.80
2018-05-26T22:31:10.433Z,21.90
2018-05-26T22:33:37.963Z,21.80
2018-05-26T22:36:06.275Z,21.70
2018-05-26T22:38:34.630Z,21.70
2018-05-26T22:41:02.158Z,21.60
2018-05-26T22:43:29.729Z,21.60
2018-05-26T22:45:57.283Z,21.60
2018-05-26T22:48:24.847Z,21.50
2018-05-26T22:50:52.367Z,21.50
2018-05-26T22:53:19.933Z,21.50
2018-05-26T22:55:47.462Z,21.40
2018-05-26T22:58:15.000Z,21.30
2018-05-26T23:00:42.526Z,21.20
2018-05-26T23:03:10.069Z,21.10
2018-05-26T23:05:37.610Z,21.00
2018-05-26T23:08:05.928Z,20.80
2018-05-26T23:10:33.484Z,20.70
2018-05-26T23:13:01.031Z,20.70
2018-05-26T23:15:28.576Z,20.50
2018-05-26T23:17:56.890Z,20.50
2018-05-26T23:20:24.502Z,20.40
2018-05-26T23:22:52.032Z,20.50
2018-05-26T23:25:19.594Z,20.40
2018-05-26T23:27:47.982Z,20.30
2018-05-26T23:30:15.553Z,20.30
2018-05-26T23:32:43.079Z,20.30
2018-05-26T23:35:11.406Z,20.30
2018-05-26T23:37:38.996Z,20.20
2018-05-26T23:40:06.563Z,20.30
2018-05-26T23:42:34.875Z,20.30
2018-05-26T23:45:03.177Z,20.30
2018-05-26T23:47:31.477Z,20.30
2018-05-26T23:49:59.795Z,20.40
2018-05-26T23:52:27.416Z,20.30
2018-05-26T23:54:55.004Z,20.40
2018-05-26T23:57:22.571Z,20.40
2018-05-26T23:59:50.137Z,20.40
